Huvudsida
METAR-TAF:

METAR-TAF

Flygplatser :

Bergens flygplats. Flesland

Bergen, Norge

latitud: 60-17N, longitud: 005-14E, höjd: 5 m

Aktuellt väderrapport

Denna rapport gjordes för 16 minuter sedan, klockan 00:20 UTC
Vind 15 kt från syd
Temperatur 5°C
Fuktighet 100%
Tryck 1034 hPa
Sikt: 9000 m
Spridda moln på en höjd av 2000 ft
Brutna moln på en höjd av 3500 ft
lätt regn

METAR: ENBR 200020Z 17015KT 9000 -RA SCT020 BKN035 05/05 Q1034 RMK WIND 1200FT 18019KT

Tid: 01:36 (00:36 UTC)

Väderprognos

Prognos gäller från 20 kl. 00 UTC till 20 kl. 24 UTC
Vind 12 kt från syd
Sikt: 6000 m
Spridda moln på en höjd av 700 ft
Brutna moln på en höjd av 1000 ft
lätt regn
Temporärt
från 20 kl. 00 UTC till 20 kl. 10 UTC
Sikt: 2000 m
Brutna moln på en höjd av 400 ft
duggregn, regn, fuktdis

TAF: ENBR 2000/2024 18012KT 6000 -RA SCT007 BKN010 TEMPO 2000/2010 2000 DZRA BR BKN004

Aktuella väderrapporter och prognoser från 4000 flygplatser (METAR- och TAF-rapporter).

De tillgängliga stationerna syns som gula och röda prickar på kartan.

För musen över prickarna för att se namnen på stationerna.

Klicka sedan för att få väderrapporter och prognoser.

För att ändra kartan: Klicka på de gröna knapparna med ett svart kors på för att zooma in; den gröna knappen med ett streck på för att zooma ut; eller på de gröna pilarna för angränsande kartor.


METAR-TAF: